CBR8 weather

Prince Rupert (Hospital) Heliport
Prince Rupert, British Columbia, Canada

Public forecast

Using degrees Celsius for public forecast. Weather courtesy of forecast.io.

Closest aviation weather report (METAR) to Prince Rupert (Hospital) Heliport

Closest report is Prince Rupert Airport, 4.2 nm (7.7 km) WSW. Retrieved 2019/11/18 08:00 UTC (31 minutes ago):

CYPR 180800Z AUTO 15004KT 130V190 9SM BKN060 OVC073 08/06 A3004 RMK SLP175

Closest aviation forecast (TAF) to Prince Rupert (Hospital) Heliport

Closest forecast is Prince Rupert Airport, 4.2 nm (7.7 km) WSW. Retrieved 2019/11/18 07:42 UTC (49 minutes ago):

TAF CYPR 180638Z 1807/1819 16005KT P6SM SCT020 BKN060 TEMPO 1807/1819 5SM -SHRA BR BKN020 OVC040 RMK FCST BASED ON AUTO OBS NXT FCST BY 181300Z